Time;durP1;ratioP1;P1;durP2;ratioP2;P2;SDS_P1;SDS_P2;PMS_P1;PMS_P2;Temp;Humidity;BMP_temperature;BMP_pressure;BME280_temperature;BME280_humidity;BME280_pressure;Samples;Min_cycle;Max_cycle;Signal;HPM_P1;HPM_P2
2021/09/22 00:01:10;;;;;;;8.23;7.13;;;;;;;13.04;60.43;102114.50;5133596;27;20182;-60
2021/09/22 00:03:36;;;;;;;10.00;7.63;;;;;;;12.99;60.54;102117.75;5133450;27;20257;-61
2021/09/22 00:06:02;;;;;;;10.20;7.13;;;;;;;12.96;60.51;102113.78;5133622;27;20181;-60
2021/09/22 00:08:27;;;;;;;11.73;7.63;;;;;;;12.99;60.29;102110.19;5133317;27;20173;-60
2021/09/22 00:10:53;;;;;;;10.23;7.63;;;;;;;13.01;60.36;102109.78;5133214;27;20174;-61
2021/09/22 00:13:18;;;;;;;9.63;7.67;;;;;;;12.96;60.84;102104.66;5114847;27;20207;-60
2021/09/22 00:15:44;;;;;;;8.93;7.37;;;;;;;12.87;60.69;102088.41;5133435;27;20227;-60
2021/09/22 00:18:09;;;;;;;8.80;7.40;;;;;;;12.82;60.16;102060.25;5133013;27;20561;-61
2021/09/22 00:20:35;;;;;;;11.43;6.73;;;;;;;12.98;60.31;102091.13;5133306;27;20664;-60
2021/09/22 00:23:01;;;;;;;10.77;7.00;;;;;;;13.05;60.24;102093.81;5132788;27;20182;-61
2021/09/22 00:25:29;;;;;;;11.83;7.60;;;;;;;13.00;60.19;102092.28;5114937;27;20174;-61
2021/09/22 00:27:55;;;;;;;11.47;7.83;;;;;;;12.98;60.38;102091.91;5132644;27;20172;-61
2021/09/22 00:30:20;;;;;;;9.27;7.03;;;;;;;12.95;60.08;102094.69;5133274;27;20281;-60
2021/09/22 00:32:46;;;;;;;8.73;7.17;;;;;;;12.98;60.02;102096.69;5132765;27;20571;-61
2021/09/22 00:35:13;;;;;;;9.47;7.20;;;;;;;12.96;60.33;102097.09;5132749;27;20186;-61
2021/09/22 00:37:40;;;;;;;7.77;6.97;;;;;;;12.60;60.28;102025.53;5131889;27;20261;-60
2021/09/22 00:40:07;;;;;;;9.20;7.43;;;;;;;12.91;60.11;102074.47;5132825;27;20178;-60
2021/09/22 00:42:33;;;;;;;8.50;7.10;;;;;;;12.98;59.96;102080.78;5133024;27;20200;-61
2021/09/22 00:45:05;;;;;;;10.10;7.27;;;;;;;12.90;60.10;102075.66;5132464;27;20242;-61
2021/09/22 00:47:30;;;;;;;10.50;7.77;;;;;;;12.97;60.07;102081.97;5132459;27;20159;-61
2021/09/22 00:49:56;;;;;;;8.63;7.73;;;;;;;12.97;60.00;102070.06;5132667;27;20324;-61
2021/09/22 00:52:23;;;;;;;10.73;7.77;;;;;;;12.96;60.19;102074.06;5132423;27;20229;-61
2021/09/22 00:54:49;;;;;;;9.10;7.83;;;;;;;12.81;60.01;102044.78;5132628;27;20169;-60
2021/09/22 00:57:16;;;;;;;10.57;7.27;;;;;;;12.99;60.22;102065.66;5132119;27;20180;-61
2021/09/22 00:59:41;;;;;;;8.40;7.23;;;;;;;12.99;59.79;102067.66;5132925;27;20176;-61
2021/09/22 01:02:07;;;;;;;10.10;7.77;;;;;;;12.66;59.67;102021.84;5132464;27;20177;-61
2021/09/22 01:04:34;;;;;;;9.20;7.60;;;;;;;12.80;59.96;102057.13;5132645;27;20180;-61
2021/09/22 01:07:00;;;;;;;8.80;7.60;;;;;;;12.84;60.01;102055.88;5132084;27;20261;-61
2021/09/22 01:09:27;;;;;;;8.30;7.30;;;;;;;12.84;59.81;102049.50;5132357;27;20309;-61
2021/09/22 01:11:53;;;;;;;10.00;7.33;;;;;;;12.91;59.58;102047.44;5132046;27;20197;-61
2021/09/22 01:14:23;;;;;;;8.63;7.13;;;;;;;12.38;59.45;101960.19;5132372;27;20170;-61
2021/09/22 01:16:50;;;;;;;8.83;7.10;;;;;;;12.74;59.58;102008.66;5131805;27;20174;-61
2021/09/22 01:19:16;;;;;;;7.90;6.80;;;;;;;12.81;59.16;102011.38;5132160;27;20663;-60
2021/09/22 01:21:43;;;;;;;7.87;7.07;;;;;;;12.91;59.05;102035.53;5132120;27;20208;-61
2021/09/22 01:24:09;;;;;;;8.27;6.40;;;;;;;12.69;59.24;102006.34;5132192;27;20170;-61
2021/09/22 01:26:34;;;;;;;8.63;6.87;;;;;;;12.79;59.30;102025.72;5131529;27;20181;-61
2021/09/22 01:29:00;;;;;;;8.63;6.83;;;;;;;12.54;59.19;101991.00;5131998;27;20177;-61
2021/09/22 01:31:25;;;;;;;8.07;6.60;;;;;;;12.76;59.31;102025.75;5131944;27;20681;-61
2021/09/22 01:33:51;;;;;;;10.87;6.57;;;;;;;12.69;59.48;102011.91;5131907;27;20373;-61
2021/09/22 01:36:17;;;;;;;7.53;6.50;;;;;;;12.60;59.53;101995.69;5132051;27;20242;-61
2021/09/22 01:38:42;;;;;;;8.57;6.90;;;;;;;12.66;59.52;102016.28;5131740;27;20173;-61
2021/09/22 01:41:10;;;;;;;9.67;7.20;;;;;;;12.62;59.16;101998.88;5131804;27;20179;-61
2021/09/22 01:43:38;;;;;;;8.33;6.50;;;;;;;12.71;59.32;102009.50;5131832;27;20177;-61
2021/09/22 01:46:06;;;;;;;8.70;6.87;;;;;;;12.67;59.65;102003.19;5131610;27;20215;-61
2021/09/22 01:48:31;;;;;;;6.77;6.00;;;;;;;12.46;59.65;101959.69;5131569;27;20181;-61
2021/09/22 01:50:58;;;;;;;9.53;6.47;;;;;;;12.69;59.53;101996.00;5131261;27;20173;-61
2021/09/22 01:53:25;;;;;;;7.47;6.40;;;;;;;12.46;59.61;101972.81;5131656;28;20312;-61
2021/09/22 01:55:55;;;;;;;8.70;6.50;;;;;;;12.67;59.72;102000.41;5113404;28;20186;-61
2021/09/22 01:58:22;;;;;;;9.30;6.70;;;;;;;12.52;59.78;101973.94;5131560;28;20173;-60
2021/09/22 02:00:48;;;;;;;9.27;6.83;;;;;;;12.68;59.57;102001.97;5131821;28;20173;-60
2021/09/22 02:03:16;;;;;;;7.13;6.13;;;;;;;12.70;59.73;102003.16;5131457;28;20166;-61
2021/09/22 02:05:44;;;;;;;7.57;6.47;;;;;;;12.69;59.76;102003.56;5131755;28;20169;-61
2021/09/22 02:08:10;;;;;;;7.33;6.27;;;;;;;12.71;59.40;102001.94;5131398;28;20634;-61
2021/09/22 02:10:36;;;;;;;7.67;6.40;;;;;;;12.65;59.52;102003.59;5131615;28;20256;-61
2021/09/22 02:13:01;;;;;;;9.17;6.33;;;;;;;12.59;59.58;101996.09;5131622;28;20354;-60
2021/09/22 02:15:27;;;;;;;7.87;6.33;;;;;;;12.71;59.47;102006.72;5131589;28;20675;-61
2021/09/22 02:17:53;;;;;;;9.50;6.77;;;;;;;12.54;59.49;101979.88;5131048;28;20559;-61
2021/09/22 02:20:18;;;;;;;9.43;6.33;;;;;;;12.68;59.21;101996.41;5113316;28;20177;-61
2021/09/22 02:22:44;;;;;;;9.50;6.63;;;;;;;12.69;59.34;102003.56;5131547;28;20170;-61
2021/09/22 02:25:11;;;;;;;8.53;6.47;;;;;;;12.71;59.14;101999.16;5131455;28;20226;-61
2021/09/22 02:27:37;;;;;;;8.30;6.47;;;;;;;12.75;59.07;101999.91;5131347;28;20655;-61
2021/09/22 02:30:09;;;;;;;8.27;7.10;;;;;;;12.74;58.94;102000.31;5131424;28;20182;-61
2021/09/22 02:32:36;;;;;;;7.53;5.97;;;;;;;12.71;59.15;101998.38;5131829;28;20165;-60
2021/09/22 02:35:03;;;;;;;7.40;6.53;;;;;;;12.66;59.38;101996.06;5110579;28;20174;-61
2021/09/22 02:37:28;;;;;;;8.40;7.10;;;;;;;12.67;59.49;101997.63;5109326;28;20252;-60
2021/09/22 02:39:55;;;;;;;8.03;6.80;;;;;;;12.61;59.30;101982.59;5110755;28;20182;-61
2021/09/22 02:42:22;;;;;;;10.47;6.83;;;;;;;12.42;59.39;101950.63;5110852;28;20300;-61
2021/09/22 02:44:48;;;;;;;7.83;6.63;;;;;;;12.37;59.45;101958.59;5113006;28;20170;-60
2021/09/22 02:47:14;;;;;;;9.17;7.03;;;;;;;12.56;59.43;101981.03;5130897;28;20173;-61
2021/09/22 02:49:40;;;;;;;8.43;6.97;;;;;;;12.60;59.53;102001.25;5131204;28;20615;-61
2021/09/22 02:52:06;;;;;;;8.50;6.47;;;;;;;12.64;59.14;101984.53;5131001;28;20225;-61
2021/09/22 02:54:32;;;;;;;9.30;6.80;;;;;;;12.51;59.15;101962.03;5131350;28;20721;-61
2021/09/22 02:56:57;;;;;;;7.80;5.87;;;;;;;12.65;58.87;101975.00;5130770;28;20191;-61
2021/09/22 02:59:23;;;;;;;8.80;6.90;;;;;;;12.37;59.06;101931.59;5113837;27;20176;-61
2021/09/22 03:01:48;;;;;;;8.17;6.43;;;;;;;12.70;58.88;101969.00;5134750;27;20194;-60
2021/09/22 03:04:14;;;;;;;8.30;6.87;;;;;;;12.72;58.53;101983.28;5134952;27;20234;-60
2021/09/22 03:06:39;;;;;;;9.37;6.93;;;;;;;12.71;59.11;101973.34;5134700;27;20166;-60
2021/09/22 03:09:05;;;;;;;7.57;6.20;;;;;;;12.62;58.87;101962.72;5134575;27;20233;-61
2021/09/22 03:11:31;;;;;;;7.67;6.17;;;;;;;12.58;59.06;101939.72;5134806;27;20205;-61
2021/09/22 03:13:56;;;;;;;7.27;6.13;;;;;;;12.84;58.80;101958.47;5134448;27;20602;-61
2021/09/22 03:16:22;;;;;;;8.20;6.63;;;;;;;12.80;59.14;101954.94;5134450;27;20613;-61
2021/09/22 03:18:47;;;;;;;8.23;6.53;;;;;;;12.87;59.17;101952.06;5134247;27;20199;-60
2021/09/22 03:21:13;;;;;;;9.27;6.90;;;;;;;13.01;59.24;101954.72;5134237;27;20264;-61
2021/09/22 03:23:39;;;;;;;9.03;7.13;;;;;;;13.00;59.64;101958.72;5134102;27;20193;-61
2021/09/22 03:26:05;;;;;;;11.47;7.43;;;;;;;13.07;59.43;101958.59;5134823;27;20181;-61
2021/09/22 03:28:30;;;;;;;9.57;7.00;;;;;;;12.94;59.17;101921.41;5134571;27;20169;-61
2021/09/22 03:30:56;;;;;;;10.03;7.23;;;;;;;13.18;59.53;101941.78;5134248;27;20559;-60
2021/09/22 03:33:21;;;;;;;8.50;6.73;;;;;;;13.28;58.90;101949.97;5134239;27;20233;-61
2021/09/22 03:35:47;;;;;;;7.93;6.43;;;;;;;13.28;59.02;101949.97;5134323;27;20245;-60
2021/09/22 03:38:13;;;;;;;7.23;6.40;;;;;;;13.37;58.63;101955.81;5133669;27;20180;-61
2021/09/22 03:40:39;;;;;;;9.03;6.70;;;;;;;13.33;58.65;101957.84;5134297;27;20626;-61
2021/09/22 03:43:04;;;;;;;8.73;6.57;;;;;;;13.42;58.49;101969.28;5133642;27;20283;-60
2021/09/22 03:45:30;;;;;;;8.73;6.40;;;;;;;13.35;58.01;101947.09;5133983;27;20255;-61
2021/09/22 03:47:56;;;;;;;7.77;6.63;;;;;;;13.36;58.03;101948.69;5133393;27;20174;-61
2021/09/22 03:50:22;;;;;;;7.63;6.30;;;;;;;13.49;58.03;101969.19;5133960;27;20549;-61
2021/09/22 03:52:48;;;;;;;8.37;6.53;;;;;;;13.39;57.82;101938.69;5133682;27;20224;-61
2021/09/22 03:55:13;;;;;;;8.70;6.60;;;;;;;13.54;57.59;101946.44;5133648;27;20237;-61
2021/09/22 03:57:39;;;;;;;5.10;4.43;;;;;;;13.56;57.46;101943.19;5133561;27;20187;-61
2021/09/22 04:00:06;;;;;;;7.57;6.30;;;;;;;13.73;56.91;101959.66;5133886;27;20174;-61
2021/09/22 04:02:31;;;;;;;7.27;6.47;;;;;;;13.84;56.98;101979.78;5122756;27;20202;-61
2021/09/22 04:04:57;;;;;;;8.77;6.10;;;;;;;13.88;56.00;101972.16;5112924;28;20197;-61
2021/09/22 04:07:22;;;;;;;7.90;6.57;;;;;;;13.84;56.41;101970.63;5113146;28;20606;-61
2021/09/22 04:09:48;;;;;;;6.57;5.77;;;;;;;13.83;56.43;101955.13;5123333;27;20640;-61
2021/09/22 04:12:13;;;;;;;10.23;6.73;;;;;;;13.95;56.40;101951.75;5133607;27;20172;-61
2021/09/22 04:14:39;;;;;;;6.67;5.70;;;;;;;13.76;56.35;101930.16;5133310;27;20178;-61
2021/09/22 04:17:04;;;;;;;8.17;6.10;;;;;;;13.97;56.19;101952.91;5133085;27;20231;-61
2021/09/22 04:19:30;;;;;;;4.03;3.20;;;;;;;13.90;56.52;101935.50;5133590;27;20209;-61
2021/09/22 04:21:55;;;;;;;9.57;6.53;;;;;;;13.79;56.54;101930.09;5132989;27;20204;-61
2021/09/22 04:24:21;;;;;;;6.67;5.67;;;;;;;14.00;56.38;101954.84;5133313;27;20182;-61
2021/09/22 04:26:46;;;;;;;7.67;6.10;;;;;;;13.74;56.36;101924.22;5133155;27;20497;-61
2021/09/22 04:29:12;;;;;;;8.77;6.13;;;;;;;13.88;56.65;101943.50;5133190;27;20181;-61
2021/09/22 04:31:37;;;;;;;10.57;6.90;;;;;;;13.91;56.31;101945.44;5133343;27;20193;-61
2021/09/22 04:34:03;;;;;;;9.20;6.47;;;;;;;13.92;56.66;101949.78;5133309;27;20665;-61
2021/09/22 04:36:29;;;;;;;8.37;6.17;;;;;;;13.93;57.00;101940.25;5133147;27;20229;-60
2021/09/22 04:38:55;;;;;;;8.73;6.77;;;;;;;13.90;56.64;101944.66;5132736;27;20631;-61
2021/09/22 04:41:20;;;;;;;10.57;6.73;;;;;;;13.95;56.44;101938.59;5133097;27;20166;-61
2021/09/22 04:43:46;;;;;;;12.00;7.03;;;;;;;13.83;56.27;101905.75;5132741;27;20585;-61
2021/09/22 04:46:11;;;;;;;7.77;6.57;;;;;;;13.96;56.62;101933.81;5132724;27;20197;-61
2021/09/22 04:48:41;;;;;;;8.00;6.27;;;;;;;13.96;56.05;101934.59;5132565;27;20337;-61
2021/09/22 04:51:07;;;;;;;7.53;6.73;;;;;;;13.93;56.30;101935.44;5132537;27;20197;-61
2021/09/22 04:53:33;;;;;;;10.17;6.90;;;;;;;13.92;56.47;101930.28;5132781;27;20178;-61
2021/09/22 04:55:59;;;;;;;9.33;6.30;;;;;;;13.96;55.94;101931.81;5132313;27;20620;-61
2021/09/22 04:58:24;;;;;;;8.03;6.90;;;;;;;13.97;56.33;101929.81;5132564;27;20185;-61
2021/09/22 05:00:50;;;;;;;9.13;6.93;;;;;;;13.97;56.22;101927.81;5132788;27;20653;-61
2021/09/22 05:03:15;;;;;;;7.30;6.60;;;;;;;13.96;56.22;101920.66;5132009;27;20205;-61
2021/09/22 05:05:42;;;;;;;11.93;7.50;;;;;;;14.11;56.09;101927.56;5132579;27;20220;-61
2021/09/22 05:08:08;;;;;;;8.13;7.30;;;;;;;14.05;56.10;101925.69;5132368;27;20231;-60
2021/09/22 05:10:34;;;;;;;10.23;7.07;;;;;;;14.07;56.29;101924.06;5132219;27;20257;-60
2021/09/22 05:12:59;;;;;;;8.23;7.17;;;;;;;14.03;56.29;101911.41;5132146;27;20182;-61
2021/09/22 05:15:25;;;;;;;8.20;7.00;;;;;;;14.07;56.38;101926.84;5132503;27;20170;-61
2021/09/22 05:17:51;;;;;;;9.80;7.80;;;;;;;14.11;55.98;101912.84;5132012;27;20208;-60
2021/09/22 05:20:16;;;;;;;7.37;6.57;;;;;;;14.20;56.28;101929.84;5132304;27;20174;-60
2021/09/22 05:22:42;;;;;;;9.20;7.60;;;;;;;14.29;55.73;101919.69;5113180;27;20637;-61
2021/09/22 05:25:08;;;;;;;9.77;7.73;;;;;;;14.22;55.52;101919.03;5131855;27;20172;-60
2021/09/22 05:27:33;;;;;;;8.67;7.73;;;;;;;14.05;56.20;101876.31;5113624;27;20554;-60
2021/09/22 05:29:59;;;;;;;7.80;7.00;;;;;;;14.20;55.54;101888.00;5132036;27;20165;-61
2021/09/22 05:32:24;;;;;;;10.80;7.63;;;;;;;14.36;55.52;101916.78;5132054;27;20653;-60
2021/09/22 05:34:51;;;;;;;10.97;7.80;;;;;;;14.34;55.63;101908.03;5132026;27;20177;-60
2021/09/22 05:37:17;;;;;;;8.53;7.20;;;;;;;14.41;55.65;101909.91;5131826;27;20197;-61
2021/09/22 05:39:43;;;;;;;8.73;7.83;;;;;;;14.40;55.12;101908.34;5131896;27;20662;-60
2021/09/22 05:42:09;;;;;;;8.23;7.33;;;;;;;14.51;54.93;101906.91;5131938;27;20195;-61
2021/09/22 05:44:34;;;;;;;9.20;8.20;;;;;;;14.39;54.94;101876.09;5132436;27;20165;-61
2021/09/22 05:47:00;;;;;;;8.90;8.00;;;;;;;14.54;54.62;101908.06;5113266;27;20613;-61
2021/09/22 05:49:26;;;;;;;9.00;8.10;;;;;;;14.70;54.36;101911.72;5131882;27;20169;-61
2021/09/22 05:51:52;;;;;;;8.43;7.60;;;;;;;14.79;54.26;101919.50;5131492;27;20227;-61
2021/09/22 05:54:17;;;;;;;11.10;8.10;;;;;;;14.81;54.01;101906.69;5131869;27;20251;-61
2021/09/22 05:56:45;;;;;;;9.10;8.07;;;;;;;15.02;53.64;101916.63;5131566;27;20165;-61
2021/09/22 05:59:11;;;;;;;8.87;7.97;;;;;;;15.06;53.56;101917.34;5131655;28;20171;-61
2021/09/22 06:01:36;;;;;;;12.50;7.93;;;;;;;15.20;53.41;101911.44;5131744;28;20686;-61
2021/09/22 06:04:02;;;;;;;10.97;8.20;;;;;;;15.16;52.95;101896.78;5131922;28;20181;-61
2021/09/22 06:06:28;;;;;;;9.07;7.87;;;;;;;15.32;53.02;101888.44;5131765;28;20186;-61
2021/09/22 06:08:54;;;;;;;8.40;7.33;;;;;;;15.42;52.65;101887.44;5131368;28;20214;-61
2021/09/22 06:11:20;;;;;;;10.73;7.90;;;;;;;15.68;52.18;101905.94;5131788;28;20175;-60
2021/09/22 06:13:46;;;;;;;8.67;7.77;;;;;;;15.73;52.32;101906.19;5131778;28;20182;-60
2021/09/22 06:16:12;;;;;;;9.13;8.17;;;;;;;15.90;51.23;101896.59;5131324;28;20179;-61
2021/09/22 06:18:37;;;;;;;8.97;8.07;;;;;;;15.92;51.45;101902.53;5131581;28;20236;-61
2021/09/22 06:21:04;;;;;;;9.57;7.83;;;;;;;15.95;50.80;101892.47;5131417;28;20201;-60
2021/09/22 06:23:52;;;;;;;9.53;8.23;;;;;;;16.15;49.76;101898.75;5131713;28;20192;-61
2021/09/22 06:26:23;;;;;;;8.87;7.33;;;;;;;16.05;49.36;101906.19;5131410;28;20182;-60
2021/09/22 06:28:49;;;;;;;9.07;7.60;;;;;;;16.01;49.67;101885.91;5131217;28;20668;-60
2021/09/22 06:31:14;;;;;;;9.00;7.17;;;;;;;16.15;49.92;101890.34;5131259;28;20573;-60
2021/09/22 06:33:40;;;;;;;9.27;7.63;;;;;;;16.28;49.46;101897.56;5131423;27;20223;-61
2021/09/22 06:36:06;;;;;;;7.67;6.87;;;;;;;16.40;48.91;101893.28;5135181;27;20189;-60
2021/09/22 06:38:31;;;;;;;8.97;6.63;;;;;;;16.42;48.72;101888.81;5135315;27;20550;-60
2021/09/22 06:40:57;;;;;;;11.30;6.70;;;;;;;16.36;47.70;101861.78;5135377;27;20181;-60
2021/09/22 06:43:23;;;;;;;6.93;6.07;;;;;;;16.54;46.83;101890.88;5135522;27;20214;-60
2021/09/22 06:45:48;;;;;;;6.57;5.60;;;;;;;16.58;46.24;101887.19;5135611;27;20196;-61
2021/09/22 06:48:14;;;;;;;8.17;6.10;;;;;;;16.73;46.66;101891.94;5135283;27;20636;-61
2021/09/22 06:50:39;;;;;;;6.87;5.50;;;;;;;16.86;45.93;101887.94;5135125;27;20322;-61
2021/09/22 06:53:05;;;;;;;6.33;5.37;;;;;;;17.05;45.75;101886.97;5134946;27;20599;-61
2021/09/22 06:55:30;;;;;;;8.20;5.87;;;;;;;17.13;45.58;101885.53;5135475;27;20186;-61
2021/09/22 06:57:56;;;;;;;7.93;6.40;;;;;;;17.29;45.64;101879.81;5134711;27;20175;-61
2021/09/22 07:00:21;;;;;;;6.47;5.13;;;;;;;17.29;44.54;101891.03;5135035;27;20568;-60
2021/09/22 07:02:47;;;;;;;6.50;5.23;;;;;;;17.09;43.79;101870.03;5135083;27;20239;-61
2021/09/22 07:05:14;;;;;;;6.97;5.50;;;;;;;17.23;43.86;101890.00;5134664;27;20182;-61
2021/09/22 07:07:40;;;;;;;7.77;5.03;;;;;;;17.29;44.06;101863.00;5134745;27;20183;-61
2021/09/22 07:10:07;;;;;;;6.40;5.13;;;;;;;17.22;43.26;101885.63;5134747;27;20622;-61
2021/09/22 07:12:33;;;;;;;7.30;5.77;;;;;;;17.25;43.48;101890.34;5134638;27;20262;-61
2021/09/22 07:14:59;;;;;;;6.87;5.30;;;;;;;17.35;43.92;101885.63;5115904;27;20215;-61
2021/09/22 07:17:24;;;;;;;7.63;5.43;;;;;;;17.33;43.48;101900.09;5134701;27;20556;-61
2021/09/22 07:19:50;;;;;;;8.30;5.33;;;;;;;17.30;42.83;101889.78;5134809;27;20265;-61
2021/09/22 07:22:15;;;;;;;9.93;5.13;;;;;;;17.18;43.10;101881.38;5134540;27;20193;-61
2021/09/22 07:24:41;;;;;;;7.40;4.63;;;;;;;17.42;42.70;101894.63;5134590;27;20679;-62
2021/09/22 07:27:07;;;;;;;8.60;4.57;;;;;;;17.37;42.02;101878.34;5134138;27;20195;-61
2021/09/22 07:29:32;;;;;;;6.47;4.50;;;;;;;17.63;41.15;101896.72;5134497;27;20184;-61
2021/09/22 07:31:58;;;;;;;5.70;4.30;;;;;;;17.60;40.74;101890.47;5134545;27;20180;-61
2021/09/22 07:34:24;;;;;;;6.47;4.27;;;;;;;17.60;40.74;101887.69;5134124;27;20246;-61
2021/09/22 07:36:51;;;;;;;5.80;4.27;;;;;;;17.62;40.75;101897.22;5134110;27;20324;-61
2021/09/22 07:39:16;;;;;;;6.33;4.27;;;;;;;17.03;40.40;101871.84;5134657;27;20211;-61
2021/09/22 07:41:42;;;;;;;5.57;4.50;;;;;;;17.13;40.54;101890.31;5134193;27;20623;-61
2021/09/22 07:44:08;;;;;;;5.53;4.70;;;;;;;16.90;41.02;101891.41;5134194;27;20250;-61
2021/09/22 07:46:34;;;;;;;7.03;4.60;;;;;;;16.88;41.75;101886.72;5133550;27;20189;-61
2021/09/22 07:48:59;;;;;;;5.37;4.30;;;;;;;16.79;42.09;101857.34;5133799;27;20220;-61
2021/09/22 07:51:25;;;;;;;5.70;4.20;;;;;;;17.15;41.82;101887.84;5133834;27;20624;-61
2021/09/22 07:53:51;;;;;;;7.10;4.30;;;;;;;17.32;40.52;101890.09;5133899;27;20229;-61
2021/09/22 07:56:16;;;;;;;5.20;4.00;;;;;;;17.37;40.79;101889.53;5133869;27;20176;-61
2021/09/22 07:58:42;;;;;;;5.13;4.03;;;;;;;17.36;38.99;101890.03;5133703;27;20193;-61
2021/09/22 08:01:07;;;;;;;5.43;4.00;;;;;;;17.07;37.74;101901.28;5133890;27;20177;-61
2021/09/22 08:03:33;;;;;;;4.87;4.13;;;;;;;17.11;39.05;101898.41;5115412;27;20260;-62
2021/09/22 08:05:58;;;;;;;5.73;4.03;;;;;;;17.09;38.66;101906.44;5133719;27;20234;-61
2021/09/22 08:08:24;;;;;;;7.00;4.40;;;;;;;17.04;39.75;101905.00;5133645;27;20187;-61
2021/09/22 08:10:49;;;;;;;4.97;4.30;;;;;;;16.88;39.48;101905.09;5133708;27;20180;-61
2021/09/22 08:13:15;;;;;;;5.07;4.17;;;;;;;16.79;38.93;101918.94;5133641;27;20180;-61
2021/09/22 08:15:42;;;;;;;6.80;4.40;;;;;;;16.75;39.62;101917.50;5133361;27;20178;-61
2021/09/22 08:18:08;;;;;;;6.70;4.53;;;;;;;16.48;40.47;101886.25;5133116;27;20178;-61
2021/09/22 08:20:33;;;;;;;7.30;4.80;;;;;;;16.47;40.11;101883.94;5133491;27;20185;-61
2021/09/22 08:22:59;;;;;;;4.90;4.40;;;;;;;16.48;40.66;101903.84;5133043;27;20198;-61
2021/09/22 08:25:25;;;;;;;6.70;5.10;;;;;;;16.59;40.89;101901.53;5133436;27;20177;-61
2021/09/22 08:27:50;;;;;;;6.53;4.83;;;;;;;16.89;40.48;101903.06;5133505;27;20262;-61
2021/09/22 08:30:16;;;;;;;5.40;4.40;;;;;;;16.94;40.07;101903.31;5133237;27;20180;-61
2021/09/22 08:32:42;;;;;;;5.57;4.90;;;;;;;16.63;39.96;101860.22;5114670;27;20195;-61
2021/09/22 08:35:09;;;;;;;7.77;5.40;;;;;;;16.69;40.18;101903.25;5132886;27;20196;-61
2021/09/22 08:37:35;;;;;;;7.37;5.37;;;;;;;16.60;40.20;101919.13;5132795;27;20177;-61
2021/09/22 08:40:01;;;;;;;7.00;4.83;;;;;;;16.48;40.43;101894.66;5132979;27;20189;-61
2021/09/22 08:42:27;;;;;;;7.10;4.80;;;;;;;16.49;40.54;101913.03;5133072;27;20207;-61
2021/09/22 08:44:53;;;;;;;7.67;4.90;;;;;;;16.34;41.12;101897.84;5132668;27;20677;-61
2021/09/22 08:47:20;;;;;;;7.20;4.97;;;;;;;16.35;41.39;101899.41;5132553;27;20569;-61
2021/09/22 08:49:51;;;;;;;7.80;5.07;;;;;;;16.43;40.64;101903.59;5132814;27;20200;-61
2021/09/22 08:52:16;;;;;;;8.70;5.47;;;;;;;16.45;41.40;101899.13;5113980;27;20223;-61
2021/09/22 08:54:42;;;;;;;7.77;5.03;;;;;;;16.20;41.05;101868.25;5132745;27;20677;-61
2021/09/22 08:57:08;;;;;;;7.53;5.30;;;;;;;16.34;41.69;101879.00;5131238;27;20658;-61
2021/09/22 08:59:33;;;;;;;7.70;5.37;;;;;;;16.62;41.19;101907.50;5132696;27;20248;-61
2021/09/22 09:02:08;;;;;;;9.37;5.53;;;;;;;16.60;41.35;101894.69;5132393;27;20201;-61
2021/09/22 09:04:35;;;;;;;7.17;5.37;;;;;;;16.73;41.54;101892.72;5114447;27;20179;-61
2021/09/22 09:07:00;;;;;;;7.67;4.80;;;;;;;16.80;41.26;101894.53;5132820;27;20626;-60
2021/09/22 09:09:36;;;;;;;7.57;5.70;;;;;;;16.73;40.58;101891.16;5132509;27;20240;-61
2021/09/22 09:12:13;;;;;;;6.30;5.30;;;;;;;16.81;40.37;101891.28;5113953;27;20178;-61
2021/09/22 09:14:39;;;;;;;2.77;1.97;;;;;;;16.75;39.92;101881.09;5132425;27;20170;-61
2021/09/22 09:17:11;;;;;;;9.50;5.70;;;;;;;16.69;40.69;101894.03;5132434;27;20173;-61
2021/09/22 09:19:44;;;;;;;6.87;5.57;;;;;;;16.63;41.23;101893.81;5132358;27;20196;-61
2021/09/22 09:22:10;;;;;;;10.30;5.90;;;;;;;16.59;41.32;101889.56;5131906;27;20279;-61
2021/09/22 09:24:37;;;;;;;7.20;5.33;;;;;;;16.58;42.06;101892.81;5113844;27;20260;-61
2021/09/22 09:27:30;;;;;;;6.30;5.47;;;;;;;16.67;41.86;101897.31;5131295;27;20184;-61
2021/09/22 09:29:57;;;;;;;6.53;5.53;;;;;;;16.71;41.50;101903.56;5131741;27;20188;-61
2021/09/22 09:32:27;;;;;;;7.07;5.67;;;;;;;16.68;41.89;101901.69;5132100;27;20532;-61
2021/09/22 09:35:08;;;;;;;8.33;6.20;;;;;;;16.50;42.35;101901.38;5131556;27;20658;-61
2021/09/22 09:37:40;;;;;;;7.17;5.97;;;;;;;16.46;42.32;101905.50;5131759;27;20181;-61
2021/09/22 09:40:16;;;;;;;6.97;5.50;;;;;;;16.36;42.40;101909.34;5131956;27;20172;-61
2021/09/22 09:42:42;;;;;;;9.90;5.50;;;;;;;16.36;42.81;101915.75;5131735;27;20220;-61
2021/09/22 09:45:09;;;;;;;8.53;5.43;;;;;;;15.92;42.32;101896.94;5131506;27;20183;-61
2021/09/22 09:47:35;;;;;;;8.17;5.77;;;;;;;16.02;42.58;101907.06;5131670;27;20691;-61
2021/09/22 09:50:22;;;;;;;6.83;6.10;;;;;;;16.11;43.65;101917.63;5131683;27;20191;-61
2021/09/22 09:53:00;;;;;;;9.13;6.23;;;;;;;16.19;44.04;101913.44;5131655;27;20215;-61
2021/09/22 09:55:26;;;;;;;8.83;5.97;;;;;;;16.15;43.36;101923.91;5113319;28;20202;-61
2021/09/22 09:57:54;;;;;;;7.83;6.40;;;;;;;16.22;44.25;101915.31;5131307;28;20218;-61
2021/09/22 10:00:44;;;;;;;8.63;6.40;;;;;;;16.31;43.03;101910.69;5131781;28;20180;-60
2021/09/22 10:03:17;;;;;;;7.47;6.00;;;;;;;16.15;43.33;101877.16;5131502;28;20482;-61
2021/09/22 10:05:44;;;;;;;7.20;5.90;;;;;;;16.27;43.07;101898.81;5131646;28;20592;-61
2021/09/22 10:08:11;;;;;;;9.17;5.77;;;;;;;16.33;43.16;101899.84;5132226;27;20602;-61
2021/09/22 10:10:37;;;;;;;7.73;5.50;;;;;;;16.40;42.57;101904.50;5117458;27;20215;-60
2021/09/22 10:13:02;;;;;;;9.17;5.73;;;;;;;16.35;42.72;101900.16;5135958;27;20666;-61
2021/09/22 10:15:30;;;;;;;8.93;5.20;;;;;;;16.18;42.62;101906.25;5135828;27;20715;-61
2021/09/22 10:17:57;;;;;;;5.87;4.53;;;;;;;16.24;41.93;101896.88;5135460;27;20233;-61
2021/09/22 10:20:23;;;;;;;5.20;4.47;;;;;;;16.48;43.24;101917.03;5136003;27;20247;-61
2021/09/22 10:22:48;;;;;;;7.20;4.07;;;;;;;16.62;42.39;101919.44;5131963;27;20210;-61
2021/09/22 10:25:16;;;;;;;8.43;4.73;;;;;;;16.66;43.38;101914.53;5133448;27;20241;-61
2021/09/22 10:27:46;;;;;;;9.70;5.33;;;;;;;16.63;45.16;101918.22;5135330;27;20252;-61
2021/09/22 10:30:15;;;;;;;7.20;5.33;;;;;;;16.51;45.62;101896.56;5130497;27;20195;-61
2021/09/22 10:32:41;;;;;;;6.33;5.60;;;;;;;16.80;45.79;101914.91;5116471;27;20233;-61
2021/09/22 10:35:25;;;;;;;5.93;5.33;;;;;;;16.76;45.75;101916.25;5134842;27;20203;-61
2021/09/22 10:37:59;;;;;;;6.67;5.43;;;;;;;16.72;45.69;101907.16;5135497;27;20304;-61
2021/09/22 10:40:34;;;;;;;6.37;4.97;;;;;;;16.74;45.99;101913.91;5135388;27;20164;-61
2021/09/22 10:43:14;;;;;;;7.83;5.70;;;;;;;16.73;46.22;101919.94;5135160;27;20586;-61
2021/09/22 10:45:45;;;;;;;5.60;4.97;;;;;;;16.88;45.79;101918.28;5134974;27;20581;-61
2021/09/22 10:48:17;;;;;;;6.33;5.00;;;;;;;16.95;45.52;101907.66;5135069;27;20252;-60
2021/09/22 10:50:52;;;;;;;5.80;5.13;;;;;;;16.97;45.65;101901.63;5116840;27;20188;-61
2021/09/22 10:53:33;;;;;;;6.20;4.80;;;;;;;17.06;45.61;101904.56;5134699;27;20228;-61
2021/09/22 10:56:07;;;;;;;5.03;4.50;;;;;;;17.16;45.47;101904.22;5116427;27;20194;-61
2021/09/22 10:58:40;;;;;;;6.63;4.70;;;;;;;17.01;45.38;101896.72;5126835;27;20186;-61
2021/09/22 11:01:06;;;;;;;5.63;4.93;;;;;;;17.13;45.25;101896.72;5126586;27;20180;-60
2021/09/22 11:03:50;;;;;;;6.00;4.80;;;;;;;16.99;45.80;101908.34;5130391;27;20195;-61
2021/09/22 11:06:44;;;;;;;10.50;5.50;;;;;;;16.98;46.52;101905.22;5129582;27;20643;-61
2021/09/22 11:09:32;;;;;;;6.30;5.13;;;;;;;16.98;46.40;101896.81;5127868;27;20184;-61
2021/09/22 11:12:00;;;;;;;7.17;5.27;;;;;;;16.95;46.56;101906.91;5114114;27;20853;-61
2021/09/22 11:14:46;;;;;;;5.73;5.03;;;;;;;16.90;46.26;101899.06;5131146;27;20215;-61
2021/09/22 11:17:15;;;;;;;7.60;5.53;;;;;;;16.91;46.82;101886.63;5126002;27;20592;-61
2021/09/22 11:19:55;;;;;;;8.13;5.30;;;;;;;16.93;46.76;101859.72;5132019;27;20196;-61
2021/09/22 11:22:27;;;;;;;8.73;5.80;;;;;;;16.88;46.92;101871.50;5132518;27;20203;-61
2021/09/22 11:24:57;;;;;;;7.80;5.57;;;;;;;17.07;46.95;101890.09;5132675;27;20624;-60